• Join FlightAware (Why Join?)
  • Login
  • US Flag 
01:54AM EST


 

Airport Tracker/Info


-or-


 

Live Flight TrackerFlight Track Log ✈ N93XP ✈ 11-May-2013 ✈ KPWK - KBKL

Flight Track Log - Related Links

Times and Time Zones

All times are in EDT time to prevent confusion due to time zone crossing. See the N93XP flight status page for this flight to view local times or setup timezone preferences in your user account.

Time Position Orientation Groundspeed Altitude Reporting Facility
EDT Latitude Longitude Course Direction KTS MPH feet Rate Location/Type
12:41PM 42.1333 -87.9167 56° Northeast 178 205 1,800  Level Chicago TRACON
12:42PM 42.1667 -87.8500 56° Northeast 251 289 4,400 2,820 Climbing Chicago TRACON
12:43PM 42.1719 -87.8381 59° Northeast 253 291 5,300 2,760 Climbing Chicago Center
12:44PM 42.1750 -87.7453 87° East 249 287 8,200 2,580 Climbing Chicago Center
12:45PM 42.1628 -87.6356 99° East 286 329 10,600 2,280 Climbing Chicago Center
12:46PM 42.1522 -87.5125 97° East 322 371 12,900 2,340 Climbing Chicago Center
12:47PM 42.1383 -87.3553 97° East 350 403 15,500 2,220 Climbing Chicago Center
12:48PM 42.1258 -87.2167 97° East 367 422 17,500 1,800 Climbing Chicago Center
12:49PM 42.1142 -87.0708 96° East 386 444 19,200 1,560 Climbing Chicago Center
12:50PM 42.1181 -86.9178 88° East 408 470 20,800 1,560 Climbing Chicago Center
12:51PM 42.1228 -86.7614 88° East 417 480 22,500 1,620 Climbing Chicago Center
12:52PM 42.1300 -86.5931 87° East 419 482 24,200 1,380 Climbing Chicago Center
12:53PM 42.1344 -86.4325 88° East 426 490 25,400 1,260 Climbing Chicago Center
12:54PM 42.1400 -86.2678 87° East 438 504 26,800 720 Climbing Chicago Center
12:55PM 42.1439 -86.0950 88° East 455 524 27,000 60 Climbing Chicago Center
12:56PM 42.1378 -85.8869 92° East 493 567 27,000  Level Chicago Center
12:57PM 42.1322 -85.6961 92° East 509 586 27,000  Level Chicago Center
12:58PM 42.1261 -85.5036 92° East 518 596 27,000  Level Chicago Center
12:59PM 42.1225 -85.2731 91° East 513 590 27,000  Level Cleveland Center
01:00PM 42.1158 -85.0764 93° East 519 597 27,000  Level Cleveland Center
01:01PM 42.1106 -84.8914 92° East 514 592 27,000  Level Cleveland Center
01:02PM 42.1031 -84.6975 93° East 514 592 27,000 -60 Level Cleveland Center
01:03PM 42.0950 -84.5067 93° East 514 592 26,900 -360 Descending Cleveland Center
01:04PM 42.0867 -84.3186 93° East 514 592 26,300 -600 Descending Cleveland Center
01:05PM 42.0756 -84.1472 95° East 509 586 25,800 -600 Descending Cleveland Center
01:06PM 42.0667 -83.9594 94° East 509 586 25,100 -780 Descending Cleveland Center
01:07PM 42.0594 -83.7744 93° East 504 580 24,300 -600 Descending Cleveland Center
01:08PM 42.0519 -83.5922 93° East 493 567 24,000 -180 Descending Cleveland Center
01:09PM 42.0381 -83.3931 95° East 483 556 24,000 -240 Level Cleveland Center
01:10PM 42.0214 -83.2133 97° East 483 556 23,600 -540 Descending Cleveland Center
01:11PM 42.0044 -83.0367 97° East 483 556 23,000 -300 Descending Cleveland Center
01:12PM 41.9894 -82.8600 96° East 483 556 23,000  Level Cleveland Center
01:13PM 41.9717 -82.6944 98° East 487 560 23,000 -480 Level Cleveland Center
01:14PM 41.9572 -82.5742 99° East 484 557 22,300 -1,440 Descending Cleveland Center
01:14PM 41.9522 -82.5014 95° East 483 556 21,500 -2,220 Descending Cleveland Center
01:15PM 41.9414 -82.4033 98° East 469 540 20,100 -2,220 Descending Cleveland Center
01:15PM 41.9342 -82.3333 98° East 478 550 19,300 -2,400 Descending Cleveland Center
01:16PM 41.9214 -82.2128 98° East 438 504 17,500 -2,340 Descending Cleveland Center
01:16PM 41.9178 -82.1708 97° East 454 522 17,000 -2,100 Descending Cleveland Center
01:17PM 41.9086 -82.0786 98° East 434 499 15,600 -2,040 Descending Cleveland Center
01:17PM 41.9028 -82.0311 99° East 431 496 15,000 -2,280 Descending Cleveland Center
01:18PM 41.8936 -81.9333 97° East 413 475 13,600 -2,340 Descending Cleveland Center
01:18PM 41.8858 -81.8800 101° East 414 476 12,700 -2,340 Descending Cleveland Center
01:19PM 41.8783 -81.7992 97° East 394 453 11,500 -2,040 Descending Cleveland Center
01:19PM 41.8689 -81.7264 100° East 396 456 10,700 -1,620 Descending Cleveland Center
01:20PM 41.8653 -81.6706 95° East 335 386 9,900 -1,500 Descending Cleveland Center
01:20PM 41.8553 -81.6061 102° East 349 402 9,200 -1,560 Descending Cleveland Center
01:21PM 41.8517 -81.5506 95° East 286 329 8,200 -1,740 Descending Cleveland Center
01:21PM 41.8458 -81.5003 99° East 305 351 7,500 -1,680 Descending Cleveland Center
01:22PM 41.8381 -81.4417 100° East 267 307 6,500 -1,740 Descending Cleveland Center
01:22PM 41.8339 -81.4053 99° East 269 310 5,800 -1,740 Descending Cleveland Center
01:23PM 41.8031 -81.3742 143° Southeast 238 274 4,800 -1,620 Descending Cleveland Center
01:24PM 41.7406 -81.3456 161° South 237 273 3,200 -900 Descending Cleveland Center
01:25PM 41.6864 -81.3506 184° South 178 205 3,000 -120 Descending Cleveland Center
01:26PM 41.6528 -81.3947 224° Southwest 167 192 3,000  Level Cleveland Center
01:27PM 41.6272 -81.4497 238° Southwest 169 194 3,000  Level Cleveland Center
01:28PM 41.6061 -81.4967 239° Southwest 162 186 3,100  Climbing Cleveland Center
01:29PM 41.5850 -81.5436 239° Southwest 140 161 3,000 -480 Descending Cleveland Center
01:30PM 41.5636 -81.5878 237° Southwest 128 147 2,200 -780 Descending Cleveland Center
01:31PM 41.5444 -81.6264 236° Southwest 118 136 1,500 -660 Descending Cleveland Center
01:32PM 41.5275 -81.6592 235° Southwest 121 139 1,000 -600 Descending Cleveland Center
01:34PM 41.5167 -81.6667 240° Southwest  Level FlightAware Approximate